Time;durP1;ratioP1;P1;durP2;ratioP2;P2;SDS_P1;SDS_P2;PMS_P1;PMS_P2;Temp;Humidity;BMP_temperature;BMP_pressure;BME280_temperature;BME280_humidity;BME280_pressure;Samples;Min_cycle;Max_cycle;Signal;HPM_P1;HPM_P2
2023/04/30 00:00:48;;;;;;;0.10;0.10;;;;;;;;;;5074920;28;20479;-82
2023/04/30 00:03:14;;;;;;;0.20;0.20;;;;;;;;;;5074912;28;20029;-81
2023/04/30 00:05:39;;;;;;;0.25;0.25;;;;;;;;;;5075011;28;20395;-82
2023/04/30 00:08:05;;;;;;;0.50;0.50;;;;;;;;;;5057071;28;20381;-81
2023/04/30 00:10:30;;;;;;;0.20;0.20;;;;;;;;;;5074780;28;20033;-83
2023/04/30 00:12:56;;;;;;;0.20;0.20;;;;;;;;;;5074958;28;20028;-83
2023/04/30 00:15:21;;;;;;;0.20;0.20;;;;;;;;;;5074895;28;20059;-83
2023/04/30 00:17:46;;;;;;;0.20;0.20;;;;;;;;;;5074814;28;20028;-83
2023/04/30 00:20:12;;;;;;;0.20;0.20;;;;;;;;;;5074810;28;20101;-83
2023/04/30 00:22:37;;;;;;;1.02;0.98;;;;;;;;;;5056733;28;20400;-83
2023/04/30 00:25:03;;;;;;;0.20;0.20;;;;;;;;;;5074214;28;20464;-83
2023/04/30 00:27:30;;;;;;;0.10;0.10;;;;;;;;;;5072578;28;20032;-83
2023/04/30 00:29:56;;;;;;;1.88;1.75;;;;;;;;;;5054477;28;20032;-84
2023/04/30 00:32:21;;;;;;;0.10;0.10;;;;;;;;;;5054295;28;20035;-84
2023/04/30 00:34:46;;;;;;;0.80;0.75;;;;;;;;;;5072277;28;20040;-84
2023/04/30 00:37:12;;;;;;;0.20;0.20;;;;;;;;;;5054216;28;20060;-84
2023/04/30 00:39:37;;;;;;;0.20;0.20;;;;;;;;;;5072124;28;20035;-84
2023/04/30 00:42:03;;;;;;;0.63;0.63;;;;;;;;;;5072546;28;20036;-81
2023/04/30 00:44:29;;;;;;;0.20;0.20;;;;;;;;;;5074358;28;20037;-82
2023/04/30 00:46:54;;;;;;;0.25;0.25;;;;;;;;;;5074123;28;20468;-82
2023/04/30 00:49:20;;;;;;;0.20;0.20;;;;;;;;;;5074206;28;20028;-82
2023/04/30 00:51:45;;;;;;;0.10;0.10;;;;;;;;;;5073999;28;20060;-82
2023/04/30 00:54:11;;;;;;;0.20;0.20;;;;;;;;;;5073870;28;20040;-81
2023/04/30 00:56:37;;;;;;;0.28;0.28;;;;;;;;;;5074109;28;20029;-82
2023/04/30 00:59:02;;;;;;;0.10;0.10;;;;;;;;;;5074128;28;20029;-82
2023/04/30 01:01:28;;;;;;;0.63;0.63;;;;;;;;;;5056050;28;20040;-82
2023/04/30 01:03:54;;;;;;;0.20;0.20;;;;;;;;;;5055841;28;20033;-82
2023/04/30 01:06:19;;;;;;;5.50;3.92;;;;;;;;;;5073937;28;20037;-82
2023/04/30 01:08:45;;;;;;;0.10;0.10;;;;;;;;;;5055749;28;20136;-81
2023/04/30 01:11:16;;;;;;;0.20;0.20;;;;;;;;;;5073575;28;20032;-82
2023/04/30 01:14:00;;;;;;;0.17;0.17;;;;;;;;;;5073707;28;20533;-81
2023/04/30 01:16:27;;;;;;;0.20;0.20;;;;;;;;;;5055656;28;20181;-82
2023/04/30 01:18:55;;;;;;;0.95;0.95;;;;;;;;;;5073582;28;20025;-82
2023/04/30 01:21:21;;;;;;;0.20;0.20;;;;;;;;;;5073433;28;20032;-82
2023/04/30 01:23:52;;;;;;;0.10;0.10;;;;;;;;;;5055355;28;20040;-82
2023/04/30 01:26:18;;;;;;;2.83;2.63;;;;;;;;;;5073576;28;20383;-81
2023/04/30 01:28:44;;;;;;;4.43;4.13;;;;;;;;;;5073475;28;20095;-81
2023/04/30 01:31:13;;;;;;;0.10;0.10;;;;;;;;;;5055427;28;20055;-82
2023/04/30 01:33:39;;;;;;;0.22;0.22;;;;;;;;;;5055454;28;20074;-82
2023/04/30 01:36:20;;;;;;;0.25;0.25;;;;;;;;;;5073132;28;20064;-82
2023/04/30 01:39:02;;;;;;;0.10;0.10;;;;;;;;;;5055335;28;20029;-81
2023/04/30 01:41:30;;;;;;;0.40;0.40;;;;;;;;;;5073649;28;20431;-82
2023/04/30 01:43:55;;;;;;;0.20;0.20;;;;;;;;;;5074938;28;20044;-81
2023/04/30 01:46:30;;;;;;;0.20;0.20;;;;;;;;;;5077244;28;20024;-82
2023/04/30 01:49:14;;;;;;;0.10;0.10;;;;;;;;;;5077785;28;20419;-82
2023/04/30 01:51:41;;;;;;;0.10;0.10;;;;;;;;;;5055542;28;20033;-81
2023/04/30 01:54:25;;;;;;;0.10;0.10;;;;;;;;;;5072931;28;20029;-82
2023/04/30 01:57:17;;;;;;;0.28;0.28;;;;;;;;;;5055022;28;20432;-81
2023/04/30 01:59:43;;;;;;;0.40;0.40;;;;;;;;;;5051494;28;20495;-81
2023/04/30 02:02:09;;;;;;;0.10;0.10;;;;;;;;;;5054908;28;20068;-82
2023/04/30 02:04:35;;;;;;;0.20;0.20;;;;;;;;;;5073139;28;20059;-81
2023/04/30 02:07:02;;;;;;;0.20;0.20;;;;;;;;;;5055117;28;20123;-81
2023/04/30 02:09:27;;;;;;;0.10;0.10;;;;;;;;;;5072973;28;20071;-81
2023/04/30 02:11:53;;;;;;;0.20;0.20;;;;;;;;;;5072859;28;20032;-81
2023/04/30 02:14:18;;;;;;;0.20;0.20;;;;;;;;;;5054931;28;20035;-81
2023/04/30 02:16:44;;;;;;;0.20;0.20;;;;;;;;;;5038552;28;20082;-82
2023/04/30 02:19:10;;;;;;;0.10;0.10;;;;;;;;;;5072940;28;20223;-82
2023/04/30 02:21:35;;;;;;;0.10;0.10;;;;;;;;;;5073016;28;20044;-82
2023/04/30 02:24:01;;;;;;;0.30;0.30;;;;;;;;;;5072521;28;20040;-81
2023/04/30 02:26:26;;;;;;;0.10;0.10;;;;;;;;;;5072803;28;20028;-81
2023/04/30 02:28:52;;;;;;;0.10;0.10;;;;;;;;;;5055102;28;20052;-82
2023/04/30 02:31:17;;;;;;;0.15;0.15;;;;;;;;;;5072963;28;20476;-82
2023/04/30 02:33:44;;;;;;;0.10;0.10;;;;;;;;;;5071852;28;20052;-82
2023/04/30 02:36:10;;;;;;;0.10;0.10;;;;;;;;;;5071701;28;20037;-81
2023/04/30 02:38:35;;;;;;;0.20;0.20;;;;;;;;;;5072560;28;20112;-82
2023/04/30 02:41:01;;;;;;;0.10;0.10;;;;;;;;;;5072364;28;20032;-81
2023/04/30 02:43:26;;;;;;;0.10;0.10;;;;;;;;;;5072566;28;20055;-82
2023/04/30 02:45:52;;;;;;;3.80;1.33;;;;;;;;;;5072537;28;20033;-81
2023/04/30 02:48:17;;;;;;;1.25;1.25;;;;;;;;;;5054595;28;20074;-80
2023/04/30 02:50:43;;;;;;;0.10;0.10;;;;;;;;;;5072417;28;20051;-81
2023/04/30 02:53:09;;;;;;;0.10;0.10;;;;;;;;;;5071393;28;20388;-81
2023/04/30 02:55:34;;;;;;;0.10;0.10;;;;;;;;;;5072145;28;20028;-81
2023/04/30 02:58:00;;;;;;;0.10;0.10;;;;;;;;;;5072342;28;20082;-81
2023/04/30 03:00:26;;;;;;;2.28;2.17;;;;;;;;;;5072366;28;20086;-81
2023/04/30 03:02:51;;;;;;;0.10;0.10;;;;;;;;;;5076907;28;20032;-82
2023/04/30 03:05:17;;;;;;;0.20;0.20;;;;;;;;;;5071284;28;20481;-81
2023/04/30 03:07:42;;;;;;;0.10;0.10;;;;;;;;;;5091922;28;20036;-82
2023/04/30 03:10:08;;;;;;;0.10;0.10;;;;;;;;;;5091534;28;20036;-81
2023/04/30 03:12:33;;;;;;;0.10;0.10;;;;;;;;;;5074244;28;20040;-82
2023/04/30 03:14:59;;;;;;;0.10;0.10;;;;;;;;;;5073663;28;20080;-81
2023/04/30 03:17:24;;;;;;;0.75;0.75;;;;;;;;;;5073343;28;20043;-81
2023/04/30 03:19:50;;;;;;;0.10;0.10;;;;;;;;;;5091425;28;20055;-81
2023/04/30 03:22:18;;;;;;;1.92;1.85;;;;;;;;;;5073576;28;20042;-80
2023/04/30 03:24:43;;;;;;;0.10;0.10;;;;;;;;;;5091358;28;20399;-80
2023/04/30 03:27:09;;;;;;;0.20;0.20;;;;;;;;;;5091859;28;20032;-82
2023/04/30 03:29:35;;;;;;;0.10;0.10;;;;;;;;;;5091764;28;20416;-80
2023/04/30 03:32:00;;;;;;;0.10;0.10;;;;;;;;;;5072981;28;20042;-83
2023/04/30 03:34:25;;;;;;;0.10;0.10;;;;;;;;;;5072992;28;20368;-82
2023/04/30 03:36:51;;;;;;;0.10;0.10;;;;;;;;;;5090556;28;20066;-82
2023/04/30 03:39:16;;;;;;;0.10;0.10;;;;;;;;;;5089658;28;20036;-81
2023/04/30 03:41:42;;;;;;;0.10;0.10;;;;;;;;;;5071098;28;20059;-82
2023/04/30 03:44:14;;;;;;;0.10;0.10;;;;;;;;;;5070631;28;20024;-81
2023/04/30 03:46:40;;;;;;;0.10;0.10;;;;;;;;;;5070742;28;20028;-82
2023/04/30 03:49:05;;;;;;;0.10;0.10;;;;;;;;;;5070641;28;20032;-81
2023/04/30 03:51:31;;;;;;;0.10;0.10;;;;;;;;;;5089060;28;20039;-82
2023/04/30 03:53:57;;;;;;;0.20;0.20;;;;;;;;;;5072565;28;20038;-81
2023/04/30 03:56:22;;;;;;;0.10;0.10;;;;;;;;;;5095372;28;20039;-82
2023/04/30 03:58:48;;;;;;;0.10;0.10;;;;;;;;;;5077050;28;20028;-81
2023/04/30 04:01:13;;;;;;;0.10;0.10;;;;;;;;;;5075069;28;20555;-82
2023/04/30 04:03:39;;;;;;;0.10;0.10;;;;;;;;;;5073253;28;20036;-81
2023/04/30 04:06:04;;;;;;;0.10;0.10;;;;;;;;;;5073001;28;20805;-82
2023/04/30 04:08:30;;;;;;;0.22;0.22;;;;;;;;;;5072625;28;20040;-82
2023/04/30 04:10:55;;;;;;;0.10;0.10;;;;;;;;;;5090605;28;20142;-81
2023/04/30 04:13:21;;;;;;;0.35;0.35;;;;;;;;;;5091023;28;20016;-81
2023/04/30 04:15:46;;;;;;;0.10;0.10;;;;;;;;;;5072381;28;20053;-81
2023/04/30 04:18:12;;;;;;;0.10;0.10;;;;;;;;;;5090851;28;20024;-81
2023/04/30 04:20:37;;;;;;;0.10;0.10;;;;;;;;;;5072386;28;20038;-81
2023/04/30 04:23:03;;;;;;;0.10;0.10;;;;;;;;;;5072496;28;20043;-82
2023/04/30 04:25:28;;;;;;;0.10;0.10;;;;;;;;;;5072102;28;20036;-81
2023/04/30 04:27:54;;;;;;;0.10;0.10;;;;;;;;;;5090651;28;20032;-81
2023/04/30 04:30:19;;;;;;;0.10;0.10;;;;;;;;;;5072680;28;20032;-81
2023/04/30 04:32:48;;;;;;;0.30;0.30;;;;;;;;;;5072471;28;20028;-81
2023/04/30 04:35:14;;;;;;;0.10;0.10;;;;;;;;;;5072233;28;20036;-81
2023/04/30 04:37:41;;;;;;;0.25;0.25;;;;;;;;;;5072481;28;20047;-82
2023/04/30 04:40:07;;;;;;;0.10;0.10;;;;;;;;;;5055567;28;20036;-81
2023/04/30 04:42:33;;;;;;;0.20;0.20;;;;;;;;;;5090520;28;20044;-81
2023/04/30 04:44:58;;;;;;;0.10;0.10;;;;;;;;;;5072104;28;20529;-81
2023/04/30 04:47:24;;;;;;;0.10;0.10;;;;;;;;;;5071991;28;20035;-81
2023/04/30 04:49:50;;;;;;;0.10;0.10;;;;;;;;;;5055617;28;20032;-81
2023/04/30 04:52:15;;;;;;;0.22;0.22;;;;;;;;;;5072099;28;20391;-81
2023/04/30 04:54:41;;;;;;;0.40;0.40;;;;;;;;;;5071829;28;20035;-80
2023/04/30 04:57:06;;;;;;;0.50;0.50;;;;;;;;;;5071732;28;20032;-81
2023/04/30 04:59:32;;;;;;;1.08;1.08;;;;;;;;;;5090359;28;20036;-81
2023/04/30 05:01:57;;;;;;;0.20;0.20;;;;;;;;;;5071962;28;20533;-81
2023/04/30 05:04:23;;;;;;;0.17;0.17;;;;;;;;;;5090141;28;20116;-81
2023/04/30 05:06:48;;;;;;;0.10;0.10;;;;;;;;;;5071863;28;20107;-81
2023/04/30 05:09:14;;;;;;;0.20;0.20;;;;;;;;;;5071909;28;20040;-81
2023/04/30 05:11:40;;;;;;;0.10;0.10;;;;;;;;;;5071980;28;20040;-81
2023/04/30 05:14:06;;;;;;;0.17;0.17;;;;;;;;;;5089934;28;20028;-81
2023/04/30 05:16:31;;;;;;;0.10;0.10;;;;;;;;;;5090201;28;20408;-81
2023/04/30 05:18:56;;;;;;;0.20;0.20;;;;;;;;;;5089706;28;20483;-81
2023/04/30 05:21:22;;;;;;;0.10;0.10;;;;;;;;;;5090175;28;20119;-81
2023/04/30 05:23:47;;;;;;;0.10;0.10;;;;;;;;;;5089603;28;20050;-81
2023/04/30 05:26:13;;;;;;;0.30;0.30;;;;;;;;;;5089648;28;20043;-81
2023/04/30 05:28:39;;;;;;;5.20;1.70;;;;;;;;;;5089115;28;20020;-82
2023/04/30 05:31:05;;;;;;;0.20;0.20;;;;;;;;;;5089835;28;20059;-82
2023/04/30 05:33:30;;;;;;;0.47;0.47;;;;;;;;;;5089560;28;20067;-82
2023/04/30 05:35:55;;;;;;;1.52;1.48;;;;;;;;;;5089541;28;20097;-82
2023/04/30 05:38:21;;;;;;;0.10;0.10;;;;;;;;;;5089661;28;20067;-82
2023/04/30 05:40:46;;;;;;;0.20;0.20;;;;;;;;;;5089436;28;20036;-82
2023/04/30 05:43:12;;;;;;;1.13;1.13;;;;;;;;;;5089237;28;20536;-82
2023/04/30 05:45:37;;;;;;;0.10;0.10;;;;;;;;;;5089611;28;20032;-81
2023/04/30 05:48:03;;;;;;;0.20;0.20;;;;;;;;;;5089475;28;20036;-82
2023/04/30 05:50:28;;;;;;;0.10;0.10;;;;;;;;;;5089290;28;20380;-82
2023/04/30 05:52:53;;;;;;;0.10;0.10;;;;;;;;;;5090048;28;20036;-82
2023/04/30 05:55:19;;;;;;;0.20;0.20;;;;;;;;;;5089429;28;20557;-82
2023/04/30 05:57:44;;;;;;;0.10;0.10;;;;;;;;;;5089462;28;20475;-82
2023/04/30 06:00:11;;;;;;;0.10;0.10;;;;;;;;;;5088921;28;20028;-82
2023/04/30 06:02:40;;;;;;;0.20;0.20;;;;;;;;;;5089333;28;20039;-82
2023/04/30 06:05:06;;;;;;;0.30;0.30;;;;;;;;;;5091432;28;20032;-83
2023/04/30 06:07:32;;;;;;;0.30;0.30;;;;;;;;;;5094202;28;20058;-83
2023/04/30 06:09:57;;;;;;;0.20;0.20;;;;;;;;;;5094500;28;20042;-82
2023/04/30 06:12:23;;;;;;;1.15;1.15;;;;;;;;;;5090860;28;20119;-82
2023/04/30 06:14:48;;;;;;;0.77;0.77;;;;;;;;;;5089599;28;20391;-82
2023/04/30 06:17:15;;;;;;;0.63;0.63;;;;;;;;;;5089953;28;20040;-83
2023/04/30 06:19:40;;;;;;;0.20;0.20;;;;;;;;;;5089683;28;20161;-83
2023/04/30 06:22:06;;;;;;;0.20;0.20;;;;;;;;;;5088732;28;20524;-83
2023/04/30 06:24:31;;;;;;;0.65;0.65;;;;;;;;;;5089045;28;20036;-83
2023/04/30 06:26:57;;;;;;;0.20;0.20;;;;;;;;;;5089255;28;20097;-83
2023/04/30 06:29:23;;;;;;;0.47;0.45;;;;;;;;;;5089245;28;20028;-83
2023/04/30 06:31:49;;;;;;;11.15;3.13;;;;;;;;;;5088799;28;20439;-83
2023/04/30 06:34:15;;;;;;;0.20;0.20;;;;;;;;;;5089073;28;20031;-82
2023/04/30 06:36:40;;;;;;;0.20;0.20;;;;;;;;;;5089197;28;20048;-82
2023/04/30 06:39:06;;;;;;;0.32;0.32;;;;;;;;;;5071300;28;20432;-83
2023/04/30 06:41:34;;;;;;;0.20;0.20;;;;;;;;;;5091761;28;20040;-83
2023/04/30 06:44:05;;;;;;;0.63;0.63;;;;;;;;;;5074089;28;20044;-82
2023/04/30 06:46:30;;;;;;;0.20;0.20;;;;;;;;;;5074562;28;20073;-83
2023/04/30 06:48:56;;;;;;;5.10;0.77;;;;;;;;;;5092532;28;20039;-82
2023/04/30 06:51:22;;;;;;;0.28;0.28;;;;;;;;;;5092819;28;20016;-82
2023/04/30 06:53:48;;;;;;;0.30;0.30;;;;;;;;;;5093087;28;20043;-82
2023/04/30 06:56:13;;;;;;;0.20;0.20;;;;;;;;;;5092287;28;20467;-82
2023/04/30 06:58:39;;;;;;;0.40;0.40;;;;;;;;;;5092960;28;20153;-82
2023/04/30 07:01:04;;;;;;;0.20;0.20;;;;;;;;;;5093032;28;20035;-83
2023/04/30 07:03:30;;;;;;;0.30;0.30;;;;;;;;;;5092333;28;20506;-83
2023/04/30 07:05:55;;;;;;;0.20;0.20;;;;;;;;;;5092213;28;20032;-83
2023/04/30 07:08:21;;;;;;;0.20;0.20;;;;;;;;;;5092648;28;20026;-82
2023/04/30 07:10:46;;;;;;;0.20;0.20;;;;;;;;;;5092193;28;20437;-82
2023/04/30 07:13:12;;;;;;;0.60;0.60;;;;;;;;;;5091901;28;20024;-82
2023/04/30 07:15:37;;;;;;;0.20;0.20;;;;;;;;;;5092062;28;20368;-82
2023/04/30 07:18:03;;;;;;;0.20;0.20;;;;;;;;;;5091922;28;20028;-82
2023/04/30 07:20:31;;;;;;;0.20;0.20;;;;;;;;;;5092063;28;20020;-83
2023/04/30 07:22:57;;;;;;;0.20;0.20;;;;;;;;;;5091559;28;20035;-83
2023/04/30 07:25:22;;;;;;;0.20;0.20;;;;;;;;;;5092105;28;20036;-83
2023/04/30 07:27:50;;;;;;;0.73;0.65;;;;;;;;;;5091514;28;20043;-83
2023/04/30 07:30:16;;;;;;;1.38;1.27;;;;;;;;;;5091918;28;20550;-83
2023/04/30 07:32:41;;;;;;;0.47;0.47;;;;;;;;;;5074064;28;20111;-81
2023/04/30 07:35:07;;;;;;;0.22;0.22;;;;;;;;;;5091967;28;20776;-84
2023/04/30 07:37:32;;;;;;;0.20;0.20;;;;;;;;;;5091803;28;20032;-84
2023/04/30 07:39:57;;;;;;;0.82;0.70;;;;;;;;;;5091197;28;20471;-83
2023/04/30 07:42:23;;;;;;;1.45;1.35;;;;;;;;;;5091448;28;20090;-84
2023/04/30 07:44:52;;;;;;;0.63;0.55;;;;;;;;;;5091775;28;20028;-84
2023/04/30 07:47:18;;;;;;;6.72;0.98;;;;;;;;;;5091834;28;20024;-84
2023/04/30 07:49:46;;;;;;;0.30;0.25;;;;;;;;;;5091260;28;20044;-82
2023/04/30 07:52:12;;;;;;;0.20;0.20;;;;;;;;;;5090941;28;20035;-84
2023/04/30 07:54:40;;;;;;;0.30;0.30;;;;;;;;;;5091326;28;20035;-85
2023/04/30 07:57:07;;;;;;;0.20;0.20;;;;;;;;;;5073707;28;20034;-86
2023/04/30 07:59:33;;;;;;;0.30;0.30;;;;;;;;;;5073422;28;20405;-86
2023/04/30 08:01:58;;;;;;;0.20;0.20;;;;;;;;;;5091065;28;20093;-85
2023/04/30 08:04:24;;;;;;;0.20;0.20;;;;;;;;;;5091312;28;20047;-85
2023/04/30 08:06:49;;;;;;;0.45;0.45;;;;;;;;;;5090868;28;20028;-84
2023/04/30 08:09:15;;;;;;;0.40;0.40;;;;;;;;;;5091118;28;20052;-84
2023/04/30 08:11:40;;;;;;;0.20;0.20;;;;;;;;;;5091215;28;20043;-86
2023/04/30 08:14:06;;;;;;;0.20;0.20;;;;;;;;;;5077113;28;20085;-87
2023/04/30 08:16:31;;;;;;;0.20;0.20;;;;;;;;;;5096144;28;20032;-84
2023/04/30 08:18:58;;;;;;;0.20;0.20;;;;;;;;;;5095297;28;20070;-85
2023/04/30 08:21:23;;;;;;;0.20;0.20;;;;;;;;;;5091554;28;20020;-88
2023/04/30 08:23:49;;;;;;;0.20;0.20;;;;;;;;;;5091911;28;20043;-86
2023/04/30 08:26:14;;;;;;;0.55;0.55;;;;;;;;;;5091774;28;20032;-88
2023/04/30 08:28:40;;;;;;;0.20;0.20;;;;;;;;;;5091505;28;20036;-87
2023/04/30 08:31:05;;;;;;;0.20;0.20;;;;;;;;;;5091029;28;20036;-87
2023/04/30 08:33:32;;;;;;;0.20;0.20;;;;;;;;;;5091324;28;20432;-88
2023/04/30 08:35:58;;;;;;;0.30;0.30;;;;;;;;;;5090704;28;20090;-88
2023/04/30 08:38:24;;;;;;;0.40;0.40;;;;;;;;;;5072885;28;20048;-87
2023/04/30 08:40:55;;;;;;;0.20;0.20;;;;;;;;;;5091000;28;20035;-89
2023/04/30 08:43:22;;;;;;;0.20;0.20;;;;;;;;;;5072930;28;20101;-88
2023/04/30 08:45:49;;;;;;;0.20;0.20;;;;;;;;;;5090878;28;20494;-90
2023/04/30 08:48:15;;;;;;;0.20;0.20;;;;;;;;;;5090684;28;20032;-87
2023/04/30 08:50:41;;;;;;;0.35;0.30;;;;;;;;;;5091006;28;20119;-86
2023/04/30 08:53:06;;;;;;;0.30;0.30;;;;;;;;;;5090220;28;20103;-86
2023/04/30 08:55:32;;;;;;;0.40;0.40;;;;;;;;;;5072871;28;20027;-90
2023/04/30 08:57:58;;;;;;;0.20;0.20;;;;;;;;;;5090872;28;20032;-90
2023/04/30 09:00:25;;;;;;;0.85;0.43;;;;;;;;;;5072572;28;20068;-87
2023/04/30 09:02:51;;;;;;;0.65;0.65;;;;;;;;;;5089435;28;20513;-84
2023/04/30 09:05:16;;;;;;;0.32;0.32;;;;;;;;;;5090329;28;20032;-87
2023/04/30 09:07:42;;;;;;;0.45;0.35;;;;;;;;;;5090046;28;20040;-89
2023/04/30 09:10:14;;;;;;;0.20;0.20;;;;;;;;;;5071723;28;20498;-90
2023/04/30 09:12:42;;;;;;;0.28;0.28;;;;;;;;;;5090509;28;20032;-89
2023/04/30 09:15:08;;;;;;;0.20;0.20;;;;;;;;;;5090165;28;20486;-91
2023/04/30 09:17:34;;;;;;;0.30;0.30;;;;;;;;;;5072227;28;20423;-91
2023/04/30 09:20:10;;;;;;;0.20;0.20;;;;;;;;;;5090188;28;20035;-93
2023/04/30 09:22:36;;;;;;;0.20;0.20;;;;;;;;;;5089903;28;20043;-91
2023/04/30 09:25:02;;;;;;;3.63;2.92;;;;;;;;;;5090061;28;20024;-88
2023/04/30 09:27:27;;;;;;;0.80;0.52;;;;;;;;;;5089868;28;20100;-89
2023/04/30 09:29:52;;;;;;;0.20;0.20;;;;;;;;;;5089293;28;20040;-92
2023/04/30 09:32:18;;;;;;;0.38;0.38;;;;;;;;;;5087154;28;20419;-90
2023/04/30 09:34:43;;;;;;;0.22;0.22;;;;;;;;;;5077195;28;20024;-87
2023/04/30 09:37:09;;;;;;;1.83;1.70;;;;;;;;;;5090454;28;20036;-92
2023/04/30 09:39:48;;;;;;;0.30;0.30;;;;;;;;;;5089625;28;20028;-91
2023/04/30 09:42:13;;;;;;;0.20;0.20;;;;;;;;;;5089836;28;20028;-92
2023/04/30 09:44:40;;;;;;;0.85;0.43;;;;;;;;;;5090517;28;20183;-80
2023/04/30 09:47:13;;;;;;;0.20;0.20;;;;;;;;;;5089998;28;20136;-89
2023/04/30 09:49:40;;;;;;;0.57;0.57;;;;;;;;;;5090083;28;20038;-88
2023/04/30 09:52:06;;;;;;;4.07;1.00;;;;;;;;;;5090185;28;20157;-91
2023/04/30 09:54:31;;;;;;;0.20;0.20;;;;;;;;;;5089747;28;20065;-91
2023/04/30 09:56:58;;;;;;;0.52;0.38;;;;;;;;;;5089524;28;20497;-86
2023/04/30 09:59:26;;;;;;;0.20;0.20;;;;;;;;;;5071751;28;20038;-90
2023/04/30 10:01:52;;;;;;;0.20;0.20;;;;;;;;;;5089170;28;20036;-83
2023/04/30 10:04:18;;;;;;;0.20;0.20;;;;;;;;;;5071335;28;20035;-86
2023/04/30 10:06:43;;;;;;;0.20;0.20;;;;;;;;;;5089336;28;20543;-88
2023/04/30 10:09:10;;;;;;;0.20;0.20;;;;;;;;;;5089898;28;20065;-88
2023/04/30 10:11:36;;;;;;;12.45;1.08;;;;;;;;;;5090432;28;20054;-87
2023/04/30 10:14:06;;;;;;;0.20;0.20;;;;;;;;;;5072686;28;20020;-88
2023/04/30 10:16:38;;;;;;;0.40;0.32;;;;;;;;;;5092073;28;20035;-87
2023/04/30 10:19:11;;;;;;;0.35;0.35;;;;;;;;;;5093486;28;20036;-85
2023/04/30 10:21:39;;;;;;;0.30;0.30;;;;;;;;;;5091078;28;20265;-87
2023/04/30 10:24:05;;;;;;;0.20;0.20;;;;;;;;;;5072430;28;20111;-89
2023/04/30 10:26:31;;;;;;;0.20;0.20;;;;;;;;;;5091031;28;20136;-91
2023/04/30 10:29:00;;;;;;;0.45;0.45;;;;;;;;;;5088881;28;20099;-86
2023/04/30 10:31:27;;;;;;;0.22;0.22;;;;;;;;;;5088835;28;20039;-88
2023/04/30 10:33:56;;;;;;;0.20;0.20;;;;;;;;;;5087106;28;20093;-84
2023/04/30 10:36:37;;;;;;;0.57;0.57;;;;;;;;;;5087359;28;20046;-88
2023/04/30 10:39:04;;;;;;;0.20;0.20;;;;;;;;;;5086945;28;20845;-86
2023/04/30 10:41:31;;;;;;;0.28;0.28;;;;;;;;;;5087369;28;20050;-86
2023/04/30 10:44:00;;;;;;;0.22;0.22;;;;;;;;;;5086991;28;20036;-87
2023/04/30 10:46:27;;;;;;;0.20;0.20;;;;;;;;;;5087427;28;20067;-87
2023/04/30 10:48:54;;;;;;;0.63;0.57;;;;;;;;;;5087402;28;20028;-86
2023/04/30 10:51:21;;;;;;;0.20;0.20;;;;;;;;;;5088776;28;20081;-87
2023/04/30 10:53:50;;;;;;;0.20;0.20;;;;;;;;;;5089179;28;20040;-88
2023/04/30 10:56:30;;;;;;;0.20;0.20;;;;;;;;;;5089217;28;20492;-88
2023/04/30 10:58:55;;;;;;;;;;;;;;;;;;5088490;28;20062;-89
2023/04/30 11:01:21;;;;;;;0.20;0.20;;;;;;;;;;5087613;28;19944;-83
2023/04/30 11:04:04;;;;;;;6.60;1.27;;;;;;;;;;5086508;28;20067;-89
2023/04/30 11:06:49;;;;;;;0.25;0.25;;;;;;;;;;5070931;28;20032;-88
2023/04/30 11:09:15;;;;;;;0.63;0.50;;;;;;;;;;5072348;28;20036;-85
2023/04/30 11:11:46;;;;;;;0.43;0.40;;;;;;;;;;5088138;28;20429;-85
2023/04/30 11:14:12;;;;;;;0.40;0.40;;;;;;;;;;5088982;28;20047;-85
2023/04/30 11:16:38;;;;;;;0.32;0.32;;;;;;;;;;5088543;28;20032;-88
2023/04/30 11:19:12;;;;;;;0.95;0.70;;;;;;;;;;5088743;28;20032;-88
2023/04/30 11:22:01;;;;;;;0.85;0.63;;;;;;;;;;5088776;28;20057;-89
2023/04/30 11:24:27;;;;;;;;;;;;;;;;;;5081055;28;20127;-87
2023/04/30 11:27:03;;;;;;;0.25;0.25;;;;;;;;;;5090407;28;20280;-89
2023/04/30 11:29:29;;;;;;;0.30;0.30;;;;;;;;;;5073972;28;20028;-88
2023/04/30 11:31:55;;;;;;;0.68;0.68;;;;;;;;;;5091855;28;20031;-92
2023/04/30 11:34:21;;;;;;;0.35;0.35;;;;;;;;;;5092482;28;20475;-92
2023/04/30 11:36:47;;;;;;;0.20;0.20;;;;;;;;;;5092348;28;20048;-88
2023/04/30 11:39:13;;;;;;;0.20;0.20;;;;;;;;;;5092580;28;20047;-89
2023/04/30 11:41:40;;;;;;;0.25;0.25;;;;;;;;;;5091121;28;20012;-89
2023/04/30 11:44:21;;;;;;;0.20;0.20;;;;;;;;;;5091448;28;20242;-90
2023/04/30 11:46:47;;;;;;;0.43;0.30;;;;;;;;;;5092032;28;20028;-88
2023/04/30 11:49:13;;;;;;;0.70;0.50;;;;;;;;;;5091842;28;20462;-87
2023/04/30 11:51:40;;;;;;;0.20;0.20;;;;;;;;;;5091968;28;20058;-89
2023/04/30 11:54:07;;;;;;;0.20;0.20;;;;;;;;;;5091362;28;20495;-90
2023/04/30 11:56:37;;;;;;;0.38;0.38;;;;;;;;;;5092207;28;20040;-92
2023/04/30 11:59:08;;;;;;;0.30;0.30;;;;;;;;;;5091685;28;20031;-90
2023/04/30 12:01:35;;;;;;;0.20;0.20;;;;;;;;;;5091858;28;20063;-90
2023/04/30 12:04:02;;;;;;;2.25;0.60;;;;;;;;;;5091047;28;20039;-87
2023/04/30 12:06:29;;;;;;;0.22;0.22;;;;;;;;;;5091873;28;20055;-89
2023/04/30 12:08:56;;;;;;;0.30;0.30;;;;;;;;;;5092354;28;20017;-89
2023/04/30 12:11:24;;;;;;;0.57;0.52;;;;;;;;;;5092108;28;20032;-87
2023/04/30 12:13:50;;;;;;;0.60;0.40;;;;;;;;;;5092308;28;20399;-86
2023/04/30 12:16:16;;;;;;;0.93;0.63;;;;;;;;;;5094234;28;20039;-89
2023/04/30 12:18:41;;;;;;;2.15;0.40;;;;;;;;;;5093154;28;20032;-88
2023/04/30 12:21:08;;;;;;;0.82;0.40;;;;;;;;;;5075972;28;20036;-89
2023/04/30 12:23:37;;;;;;;0.50;0.50;;;;;;;;;;5094323;28;20124;-87
2023/04/30 12:26:03;;;;;;;0.20;0.20;;;;;;;;;;5093839;28;20475;-88
2023/04/30 12:28:29;;;;;;;1.08;0.40;;;;;;;;;;5092950;28;20047;-84
2023/04/30 12:30:55;;;;;;;0.50;0.50;;;;;;;;;;5093305;28;20119;-84
2023/04/30 12:33:20;;;;;;;0.20;0.20;;;;;;;;;;5091608;28;20115;-85
2023/04/30 12:35:46;;;;;;;0.77;0.50;;;;;;;;;;5091432;28;20112;-90
2023/04/30 12:38:15;;;;;;;0.30;0.30;;;;;;;;;;5089890;28;20032;-89
2023/04/30 12:40:45;;;;;;;0.20;0.20;;;;;;;;;;5073210;28;20063;-88
2023/04/30 12:43:14;;;;;;;0.55;0.50;;;;;;;;;;5089970;28;20036;-85
2023/04/30 12:45:43;;;;;;;0.30;0.30;;;;;;;;;;5089184;28;20039;-84
2023/04/30 12:48:09;;;;;;;0.75;0.63;;;;;;;;;;5088813;28;20424;-83
2023/04/30 12:50:34;;;;;;;1.20;0.98;;;;;;;;;;5089187;28;20063;-85
2023/04/30 12:53:03;;;;;;;0.20;0.20;;;;;;;;;;5088908;28;20043;-88
2023/04/30 12:55:30;;;;;;;0.77;0.70;;;;;;;;;;5102071;28;20028;-84
2023/04/30 12:58:05;;;;;;;0.20;0.20;;;;;;;;;;5110024;28;20091;-86
2023/04/30 13:00:43;;;;;;;0.22;0.22;;;;;;;;;;5111972;28;20016;-86
2023/04/30 13:03:11;;;;;;;7.03;0.82;;;;;;;;;;5099318;28;20036;-85
2023/04/30 13:05:38;;;;;;;0.35;0.30;;;;;;;;;;5095727;28;20032;-86
2023/04/30 13:08:05;;;;;;;2.22;1.38;;;;;;;;;;5095975;28;20028;-84
2023/04/30 13:10:31;;;;;;;0.38;0.38;;;;;;;;;;5108277;28;20083;-89
2023/04/30 13:12:57;;;;;;;0.20;0.20;;;;;;;;;;5091972;28;20470;-89
2023/04/30 13:15:22;;;;;;;0.17;0.17;;;;;;;;;;5073671;28;20036;-88
2023/04/30 13:17:48;;;;;;;1.85;0.75;;;;;;;;;;5092231;28;20127;-88
2023/04/30 13:20:14;;;;;;;0.47;0.47;;;;;;;;;;5072492;28;20493;-90
2023/04/30 13:22:40;;;;;;;0.20;0.20;;;;;;;;;;5072765;28;20064;-84
2023/04/30 13:25:05;;;;;;;0.40;0.40;;;;;;;;;;5090606;28;20109;-89
2023/04/30 13:27:31;;;;;;;0.65;0.63;;;;;;;;;;5090095;28;20044;-86
2023/04/30 13:29:56;;;;;;;0.77;0.57;;;;;;;;;;5088907;28;20035;-90
2023/04/30 13:32:22;;;;;;;0.20;0.20;;;;;;;;;;5105041;28;20032;-93
2023/04/30 13:34:48;;;;;;;0.20;0.20;;;;;;;;;;5088809;28;20424;-87
2023/04/30 13:37:13;;;;;;;0.28;0.28;;;;;;;;;;5088944;28;20036;-92
2023/04/30 13:39:39;;;;;;;0.20;0.20;;;;;;;;;;5088862;28;20028;-88
2023/04/30 13:42:04;;;;;;;0.32;0.32;;;;;;;;;;5088869;28;20043;-90
2023/04/30 13:44:32;;;;;;;0.20;0.20;;;;;;;;;;5089676;28;20486;-84
2023/04/30 13:46:57;;;;;;;0.80;0.70;;;;;;;;;;5090219;28;20077;-88
2023/04/30 13:49:23;;;;;;;0.30;0.30;;;;;;;;;;5089614;28;20040;-89
2023/04/30 13:51:48;;;;;;;0.20;0.20;;;;;;;;;;5090085;28;20394;-92
2023/04/30 13:54:14;;;;;;;0.20;0.20;;;;;;;;;;5090116;28;20143;-90
2023/04/30 13:56:40;;;;;;;0.20;0.20;;;;;;;;;;5087439;28;20463;-91
2023/04/30 13:59:05;;;;;;;0.30;0.30;;;;;;;;;;5070063;28;20036;-86
2023/04/30 14:01:32;;;;;;;3.85;0.57;;;;;;;;;;5088650;28;20027;-91
2023/04/30 14:03:58;;;;;;;0.20;0.20;;;;;;;;;;5091562;28;20040;-82
2023/04/30 14:06:23;;;;;;;2.05;1.13;;;;;;;;;;5068816;28;20589;-87
2023/04/30 14:08:49;;;;;;;0.50;0.28;;;;;;;;;;5086098;28;20028;-84
2023/04/30 14:11:15;;;;;;;0.20;0.20;;;;;;;;;;5068645;28;20028;-90
2023/04/30 14:13:40;;;;;;;0.22;0.22;;;;;;;;;;5086940;28;20678;-90
2023/04/30 14:16:06;;;;;;;0.20;0.20;;;;;;;;;;5088041;28;20032;-91
2023/04/30 14:18:31;;;;;;;0.20;0.20;;;;;;;;;;5091687;28;20023;-91
2023/04/30 14:20:57;;;;;;;0.45;0.45;;;;;;;;;;5074411;28;20062;-91
2023/04/30 14:23:23;;;;;;;0.20;0.20;;;;;;;;;;5091630;28;20032;-91
2023/04/30 14:25:48;;;;;;;0.20;0.20;;;;;;;;;;5088014;28;20023;-93
2023/04/30 14:28:14;;;;;;;0.20;0.20;;;;;;;;;;5091861;28;20036;-93
2023/04/30 14:30:39;;;;;;;0.20;0.20;;;;;;;;;;5090945;28;20471;-86
2023/04/30 14:33:04;;;;;;;0.20;0.20;;;;;;;;;;5090788;28;20052;-87
2023/04/30 14:35:30;;;;;;;0.30;0.30;;;;;;;;;;5089726;28;20032;-86
2023/04/30 14:37:55;;;;;;;0.25;0.25;;;;;;;;;;5090205;28;20043;-91
2023/04/30 14:40:20;;;;;;;0.15;0.15;;;;;;;;;;5089956;28;20055;-93